Time;durP1;ratioP1;P1;durP2;ratioP2;P2;SDS_P1;SDS_P2;PMS_P1;PMS_P2;Temp;Humidity;BMP_temperature;BMP_pressure;BME280_temperature;BME280_humidity;BME280_pressure;Samples;Min_cycle;Max_cycle;Signal;HPM_P1;HPM_P2
2023/04/25 00:01:14;;;;;;;2.60;1.80;;;;;;;11.47;59.98;94967.38;6072331;23;20224;-86
2023/04/25 00:03:43;;;;;;;1.90;1.70;;;;;;;11.46;60.28;94976.09;6070848;23;20166;-85
2023/04/25 00:06:19;;;;;;;;;;;;;;;;;;;;;
2023/04/25 00:12:04;;;;;;;2.00;1.80;;;;;;;11.53;59.95;94968.38;6055362;23;20209;-86
2023/04/25 00:14:57;;;;;;;2.00;1.90;;;;;;;11.57;59.57;94979.84;6072450;23;20165;-86
2023/04/25 00:17:55;;;;;;;3.30;1.93;;;;;;;11.56;60.79;94981.66;6069410;23;20173;-86
2023/04/25 00:26:20;;;;;;;1.80;1.70;;;;;;;11.50;59.82;94985.03;6072775;23;20201;-85
2023/04/25 00:29:06;;;;;;;1.73;1.60;;;;;;;11.50;60.05;94991.97;6072851;23;20165;-87
2023/04/25 00:31:44;;;;;;;1.90;1.80;;;;;;;11.51;59.70;94980.66;6073916;23;20248;-87
2023/04/25 00:34:23;;;;;;;2.27;2.07;;;;;;;11.55;59.39;94976.69;6071971;23;20181;-86
2023/04/25 00:37:04;;;;;;;;;;;;;;;;;;;;;
2023/04/25 00:39:32;;;;;;;2.37;1.77;;;;;;;11.53;59.93;94976.91;6061870;23;20212;-87
2023/04/25 00:42:20;;;;;;;2.90;1.70;;;;;;;11.54;59.54;94969.97;6071573;23;20751;-85
2023/04/25 00:44:49;;;;;;;1.97;1.77;;;;;;;11.53;59.94;94970.97;6072615;23;20273;-86
2023/04/25 00:47:25;;;;;;;1.77;1.67;;;;;;;11.47;60.52;94964.78;6072207;23;20197;-87
2023/04/25 00:50:13;;;;;;;1.87;1.63;;;;;;;11.49;60.26;94967.19;6072381;23;20168;-85
2023/04/25 00:52:48;;;;;;;1.90;1.77;;;;;;;11.29;61.18;94970.53;6072730;23;20172;-87
2023/04/25 00:55:17;;;;;;;2.77;1.63;;;;;;;11.33;60.85;94958.84;6073436;23;20188;-87
2023/04/25 00:57:50;;;;;;;2.33;1.60;;;;;;;11.39;60.86;94962.41;6072139;23;20177;-86
2023/04/25 01:00:46;;;;;;;2.43;1.63;;;;;;;11.35;60.79;94961.22;6072793;23;20173;-87
2023/04/25 01:03:40;;;;;;;2.03;1.83;;;;;;;11.29;61.00;94954.28;6071357;23;20165;-85
2023/04/25 01:06:16;;;;;;;2.00;1.80;;;;;;;11.34;60.38;94967.38;6063403;23;20487;-86
2023/04/25 01:09:12;;;;;;;2.07;1.80;;;;;;;11.34;60.66;94965.59;6071466;23;20172;-85
2023/04/25 01:11:58;;;;;;;3.00;1.97;;;;;;;11.34;60.69;94969.94;6071085;23;20201;-87
2023/04/25 01:14:39;;;;;;;2.47;1.60;;;;;;;11.21;60.93;94968.13;6071715;23;20200;-86
2023/04/25 01:17:33;;;;;;;2.97;1.90;;;;;;;11.25;61.12;94966.75;6071201;23;20240;-87
2023/04/25 01:20:20;;;;;;;2.13;1.70;;;;;;;11.29;60.29;94956.84;6073018;23;20165;-86
2023/04/25 01:22:57;;;;;;;3.23;1.80;;;;;;;11.30;60.04;94963.59;6072119;23;20181;-87
2023/04/25 01:25:45;;;;;;;1.80;1.60;;;;;;;11.33;60.44;94963.19;6073065;23;20164;-86
2023/04/25 01:28:29;;;;;;;;;;;;;;;;;;;;;
2023/04/25 01:31:17;;;;;;;2.27;1.60;;;;;;;11.25;60.46;94956.44;6056734;23;20239;-86
2023/04/25 01:37:00;;;;;;;3.53;1.90;;;;;;;11.06;62.06;94949.47;6068033;23;20165;-86
2023/04/25 01:45:16;;;;;;;1.80;1.70;;;;;;;11.21;60.07;94957.00;6068397;23;20246;-85
2023/04/25 01:48:07;;;;;;;3.00;1.90;;;;;;;11.19;60.01;94949.47;6073121;23;20200;-86
2023/04/25 01:50:55;;;;;;;4.63;1.67;;;;;;;11.17;60.07;94948.09;6064779;23;20192;-86
2023/04/25 01:53:25;;;;;;;2.43;1.80;;;;;;;11.10;60.32;94945.50;6071573;23;20248;-85
2023/04/25 01:56:05;;;;;;;1.90;1.73;;;;;;;11.12;60.27;94951.28;6072223;23;20577;-86
2023/04/25 02:01:43;;;;;;;2.20;1.60;;;;;;;11.12;59.70;94950.47;6070647;23;20196;-85
2023/04/25 02:04:42;;;;;;;2.80;1.70;;;;;;;11.04;60.37;94952.22;6072506;23;20703;-86
2023/04/25 02:07:22;;;;;;;2.57;1.70;;;;;;;11.06;60.37;94939.16;6072704;23;20196;-88
2023/04/25 02:10:00;;;;;;;2.97;1.90;;;;;;;10.93;61.23;94939.13;6071968;23;20187;-86
2023/04/25 02:15:21;;;;;;;2.73;1.80;;;;;;;10.97;60.64;94946.25;6070441;23;20647;-86
2023/04/25 02:18:23;;;;;;;1.90;1.80;;;;;;;10.99;60.93;94949.44;6074047;23;20157;-86
2023/04/25 02:21:00;;;;;;;2.07;1.47;;;;;;;11.01;59.96;94960.34;6072319;23;20204;-85
2023/04/25 02:23:45;;;;;;;2.47;1.73;;;;;;;11.02;59.80;94948.25;6071996;23;20225;-85
2023/04/25 02:26:27;;;;;;;3.43;1.80;;;;;;;11.05;59.70;94943.50;6071130;23;20257;-87
2023/04/25 02:29:04;;;;;;;3.50;1.77;;;;;;;11.04;59.72;94941.13;6072169;23;20184;-86
2023/04/25 02:31:40;;;;;;;1.80;1.70;;;;;;;11.07;59.50;94940.75;6072735;23;20672;-85
2023/04/25 02:34:23;;;;;;;1.90;1.70;;;;;;;11.04;59.49;94941.91;6072240;23;20803;-86
2023/04/25 02:37:07;;;;;;;2.33;2.13;;;;;;;11.01;59.34;94944.09;6072495;23;20165;-86
2023/04/25 02:39:58;;;;;;;2.70;1.90;;;;;;;10.91;59.74;94938.53;6070774;23;20176;-86
2023/04/25 02:42:51;;;;;;;;;;;;;;;;;;;;;
2023/04/25 02:45:29;;;;;;;2.30;2.00;;;;;;;10.89;59.13;94945.66;6061599;23;20223;-87
2023/04/25 02:48:06;;;;;;;2.53;1.83;;;;;;;10.92;59.25;94940.13;6073103;23;20241;-86
2023/04/25 02:50:39;;;;;;;1.83;1.60;;;;;;;10.90;58.64;94942.09;6073091;23;20196;-86
2023/04/25 02:53:11;;;;;;;2.47;1.90;;;;;;;10.89;58.86;94945.66;6072331;23;20173;-86
2023/04/25 02:56:16;;;;;;;1.90;1.70;;;;;;;10.91;58.72;94935.97;6071975;23;20649;-87
2023/04/25 02:58:53;;;;;;;2.43;1.70;;;;;;;10.94;58.94;94949.25;6071425;23;20200;-86
2023/04/25 03:01:49;;;;;;;2.27;2.00;;;;;;;10.92;58.70;94945.28;6072981;23;20224;-87
2023/04/25 03:04:28;;;;;;;2.83;1.87;;;;;;;10.98;58.20;94941.91;6070938;23;20216;-86
2023/04/25 03:07:11;;;;;;;1.80;1.57;;;;;;;10.73;58.54;94941.66;6071585;23;20244;-85
2023/04/25 03:12:26;;;;;;;1.80;1.70;;;;;;;10.55;59.80;94939.59;6068689;23;20225;-85
2023/04/25 03:15:03;;;;;;;1.80;1.70;;;;;;;10.56;60.11;94932.69;6072063;23;20252;-85
2023/04/25 03:17:49;;;;;;;;;;;;;;;;;;;;;
2023/04/25 03:20:39;;;;;;;2.77;1.80;;;;;;;10.63;60.87;94921.41;6062458;23;20208;-85
2023/04/25 03:26:02;;;;;;;2.13;1.90;;;;;;;10.47;60.56;94918.38;6071883;23;20883;-85
2023/04/25 03:28:55;;;;;;;2.73;1.70;;;;;;;10.37;60.75;94914.38;6072252;23;20177;-85
2023/04/25 03:31:31;;;;;;;2.27;1.70;;;;;;;10.43;60.82;94920.53;6072545;23;20197;-86
2023/04/25 03:34:18;;;;;;;1.70;1.60;;;;;;;10.45;60.80;94930.63;6073741;23;20189;-86
2023/04/25 03:36:50;;;;;;;3.47;1.80;;;;;;;10.35;60.76;94928.44;6050586;23;20205;-85
2023/04/25 03:39:41;;;;;;;1.90;1.70;;;;;;;10.34;61.38;94927.63;6072316;23;20160;-86
2023/04/25 03:42:12;;;;;;;2.10;2.00;;;;;;;10.11;61.40;94924.50;6071209;23;20246;-85
2023/04/25 03:45:09;;;;;;;1.50;1.40;;;;;;;10.20;61.05;94918.25;6071516;23;20181;-85
2023/04/25 03:47:55;;;;;;;2.40;1.50;;;;;;;10.17;61.39;94923.75;6072493;23;20184;-86
2023/04/25 03:50:33;;;;;;;;;;;;;;;;;;;;;
2023/04/25 03:53:13;;;;;;;2.63;1.50;;;;;;;10.05;62.21;94925.25;6072756;23;20585;-85
2023/04/25 03:55:40;;;;;;;3.10;1.60;;;;;;;10.12;61.75;94922.72;6071781;23;20169;-85
2023/04/25 03:58:08;;;;;;;1.60;1.50;;;;;;;10.17;62.10;94922.97;6070770;23;20737;-87
2023/04/25 04:00:34;;;;;;;3.40;1.70;;;;;;;10.26;62.00;94925.19;6073871;23;20229;-84
2023/04/25 04:03:07;;;;;;;1.73;1.50;;;;;;;10.26;61.90;94926.97;6073083;23;20207;-85
2023/04/25 04:06:09;;;;;;;;;;;;;;;;;;;;;
2023/04/25 04:08:50;;;;;;;1.93;1.20;;;;;;;10.21;62.18;94927.53;6061302;23;20223;-86
2023/04/25 04:11:32;;;;;;;2.53;1.70;;;;;;;10.31;62.18;94924.63;6076319;23;20189;-85
2023/04/25 04:14:02;;;;;;;1.57;1.37;;;;;;;10.28;61.99;94923.22;6076442;23;20280;-86
2023/04/25 04:16:33;;;;;;;1.70;1.33;;;;;;;10.33;61.98;94922.66;6075288;23;20520;-84
2023/04/25 04:19:03;;;;;;;2.90;1.50;;;;;;;10.39;61.74;94935.53;6076599;23;20180;-86
2023/04/25 04:21:31;;;;;;;2.50;1.50;;;;;;;10.20;62.43;94928.53;6075278;23;20193;-85
2023/04/25 04:23:59;;;;;;;1.50;1.40;;;;;;;10.07;62.82;94918.16;6073949;23;20609;-84
2023/04/25 04:26:26;;;;;;;1.53;1.40;;;;;;;10.11;62.78;94910.84;6073168;23;20578;-86
2023/04/25 04:28:54;;;;;;;1.53;1.43;;;;;;;10.09;63.22;94916.19;6074328;23;20181;-85
2023/04/25 04:31:21;;;;;;;2.90;1.60;;;;;;;10.14;62.95;94920.75;6072971;23;20279;-84
2023/04/25 04:33:48;;;;;;;2.03;1.53;;;;;;;10.17;62.86;94923.75;6074928;23;20538;-84
2023/04/25 04:36:15;;;;;;;3.53;1.50;;;;;;;10.16;63.45;94924.75;6074258;23;20180;-85
2023/04/25 04:38:43;;;;;;;1.87;1.67;;;;;;;10.24;63.08;94931.50;6074676;23;20177;-85
2023/04/25 04:41:09;;;;;;;1.57;1.47;;;;;;;10.15;63.73;94943.72;6071089;23;20207;-85
2023/04/25 04:43:36;;;;;;;3.97;1.60;;;;;;;10.12;63.91;94938.16;6073697;23;20193;-86
2023/04/25 04:46:04;;;;;;;1.63;1.53;;;;;;;10.11;63.76;94942.50;6072544;23;20209;-85
2023/04/25 04:48:32;;;;;;;3.03;1.70;;;;;;;10.16;63.96;94936.81;6073048;23;20229;-85
2023/04/25 04:50:59;;;;;;;2.87;1.80;;;;;;;10.19;63.80;94937.25;6072509;23;20708;-85
2023/04/25 04:53:25;;;;;;;1.63;1.50;;;;;;;10.28;63.20;94932.72;6072297;23;20185;-85
2023/04/25 04:55:53;;;;;;;1.70;1.60;;;;;;;10.32;63.31;94933.94;6072818;23;20181;-85
2023/04/25 04:58:19;;;;;;;1.47;1.37;;;;;;;10.35;63.35;94929.22;6068928;23;20236;-86
2023/04/25 05:00:46;;;;;;;3.37;1.60;;;;;;;10.36;63.29;94924.88;6067723;23;20235;-87
2023/04/25 05:03:12;;;;;;;2.83;1.93;;;;;;;10.38;63.87;94918.56;6069757;23;20183;-86
2023/04/25 05:05:39;;;;;;;4.23;2.10;;;;;;;10.32;65.17;94923.66;6069659;23;20177;-85
2023/04/25 05:08:06;;;;;;;2.23;1.83;;;;;;;10.35;63.81;94923.28;6068973;23;20200;-85
2023/04/25 05:10:32;;;;;;;3.73;3.30;;;;;;;10.27;64.29;94933.72;6071484;23;20205;-87
2023/04/25 05:13:00;;;;;;;8.73;7.33;;;;;;;10.30;63.65;94929.00;6071459;23;20192;-86
2023/04/25 05:15:27;;;;;;;4.17;2.67;;;;;;;10.29;64.05;94924.03;6071442;23;20263;-87
2023/04/25 05:17:53;;;;;;;3.17;2.17;;;;;;;10.19;64.26;94928.75;6071600;23;20723;-86
2023/04/25 05:20:19;;;;;;;5.23;2.17;;;;;;;10.15;64.69;94924.94;6069284;23;20229;-87
2023/04/25 05:22:46;;;;;;;2.00;1.80;;;;;;;10.01;65.53;94926.59;6070049;23;20177;-86
2023/04/25 05:25:12;;;;;;;9.40;2.90;;;;;;;10.01;66.46;94929.19;6069659;23;20688;-86
2023/04/25 05:27:38;;;;;;;2.63;1.63;;;;;;;9.94;65.90;94925.78;6069886;23;20212;-85
2023/04/25 05:30:08;;;;;;;3.20;1.60;;;;;;;9.91;66.04;94924.38;6069612;23;20180;-85
2023/04/25 05:32:35;;;;;;;2.73;1.90;;;;;;;10.00;65.94;94919.91;6069446;23;20260;-85
2023/04/25 05:35:06;;;;;;;3.80;2.07;;;;;;;10.02;66.14;94929.00;6069189;23;20177;-85
2023/04/25 05:37:33;;;;;;;2.70;1.90;;;;;;;9.99;66.46;94929.38;6071258;23;20165;-85
2023/04/25 05:39:59;;;;;;;3.83;1.70;;;;;;;9.98;67.12;94920.09;6069089;23;20199;-87
2023/04/25 05:42:26;;;;;;;3.37;1.97;;;;;;;10.03;66.80;94922.06;6067614;23;20216;-85
2023/04/25 05:44:52;;;;;;;2.13;1.93;;;;;;;10.04;66.44;94924.47;6069759;23;20181;-85
2023/04/25 05:47:20;;;;;;;2.23;1.93;;;;;;;10.00;66.81;94922.47;6069482;23;20197;-85
2023/04/25 05:49:46;;;;;;;2.60;1.83;;;;;;;10.05;67.09;94923.47;6069862;23;20177;-85
2023/04/25 05:52:13;;;;;;;2.87;1.80;;;;;;;9.86;67.52;94931.06;6069841;23;20213;-86
2023/04/25 05:54:39;;;;;;;1.70;1.60;;;;;;;9.75;67.78;94940.09;6070052;23;20516;-84
2023/04/25 05:57:06;;;;;;;5.50;1.80;;;;;;;9.56;69.82;94956.97;6070109;23;20259;-84
2023/04/25 05:59:32;;;;;;;2.00;1.70;;;;;;;9.49;71.63;94956.09;6069070;23;20236;-84
2023/04/25 06:01:58;;;;;;;2.13;1.63;;;;;;;9.30;72.06;94956.72;6068714;23;20284;-85
2023/04/25 06:04:26;;;;;;;2.30;1.63;;;;;;;9.25;73.40;94949.56;6072802;23;20181;-84
2023/04/25 06:06:52;;;;;;;3.47;2.10;;;;;;;9.23;74.80;94950.75;6073686;23;20683;-86
2023/04/25 06:09:19;;;;;;;3.10;1.70;;;;;;;9.23;75.23;94943.84;6074611;23;20184;-85
2023/04/25 06:11:48;;;;;;;2.67;2.10;;;;;;;9.20;75.92;94946.78;6074220;23;20201;-85
2023/04/25 06:14:15;;;;;;;2.67;1.90;;;;;;;9.25;74.67;94934.16;6073531;23;20177;-85
2023/04/25 06:16:41;;;;;;;2.33;1.80;;;;;;;9.29;76.36;94934.59;6073697;23;20212;-84
2023/04/25 06:19:07;;;;;;;2.70;2.00;;;;;;;9.30;78.41;94929.25;6075866;23;20177;-87
2023/04/25 06:21:35;;;;;;;3.10;2.30;;;;;;;9.38;78.09;94932.69;6075738;23;20201;-87
2023/04/25 06:24:01;;;;;;;2.50;2.20;;;;;;;9.51;77.53;94928.44;6074633;23;20185;-85
2023/04/25 06:26:28;;;;;;;2.30;1.93;;;;;;;9.65;76.24;94932.69;6075410;23;20589;-86
2023/04/25 06:28:55;;;;;;;3.07;2.27;;;;;;;9.79;76.08;94930.25;6074110;23;20201;-86
2023/04/25 06:31:22;;;;;;;2.50;2.00;;;;;;;9.83;75.46;94931.44;6073422;23;20205;-84
2023/04/25 06:33:49;;;;;;;3.00;2.00;;;;;;;9.84;75.75;94927.88;6072396;23;20210;-85
2023/04/25 06:36:15;;;;;;;2.83;2.13;;;;;;;9.84;75.96;94928.69;6073267;23;20192;-84
2023/04/25 06:38:43;;;;;;;2.40;2.17;;;;;;;9.83;76.71;94929.66;6073727;23;20181;-84
2023/04/25 06:41:09;;;;;;;3.30;2.20;;;;;;;9.91;76.39;94934.66;6072882;23;20197;-84
2023/04/25 06:43:36;;;;;;;2.63;2.30;;;;;;;10.00;77.49;94932.75;6072207;23;20165;-85
2023/04/25 06:46:02;;;;;;;4.03;2.80;;;;;;;10.12;77.93;94938.97;6071266;23;20215;-85
2023/04/25 06:48:28;;;;;;;3.60;2.30;;;;;;;10.28;76.72;94932.72;6071805;23;20207;-85
2023/04/25 06:50:56;;;;;;;3.03;2.47;;;;;;;10.39;77.41;94927.06;6071756;23;20688;-85
2023/04/25 06:53:22;;;;;;;3.43;2.30;;;;;;;10.60;76.52;94926.13;6073133;23;20197;-85
2023/04/25 06:55:50;;;;;;;2.40;2.20;;;;;;;10.65;75.65;94931.50;6074152;23;20180;-85
2023/04/25 06:58:17;;;;;;;4.00;2.37;;;;;;;10.68;76.23;94929.34;6072408;23;20177;-85
2023/04/25 07:00:43;;;;;;;3.27;2.30;;;;;;;10.52;75.02;94934.03;6073630;23;20201;-85
2023/04/25 07:03:10;;;;;;;2.93;2.20;;;;;;;10.46;73.93;94933.00;6072446;23;20188;-85
2023/04/25 07:05:36;;;;;;;3.43;2.50;;;;;;;10.39;75.21;94929.63;6075672;23;20180;-85
2023/04/25 07:08:03;;;;;;;3.10;2.57;;;;;;;10.46;74.48;94935.59;6074676;23;20196;-86
2023/04/25 07:10:30;;;;;;;2.43;2.23;;;;;;;10.43;75.47;94940.31;6075789;23;20219;-85
2023/04/25 07:12:57;;;;;;;3.27;2.30;;;;;;;10.51;76.59;94930.66;6075439;23;20183;-86
2023/04/25 07:15:24;;;;;;;3.40;2.30;;;;;;;10.60;75.38;94918.41;6075279;23;20208;-84
2023/04/25 07:17:51;;;;;;;3.87;2.47;;;;;;;10.56;74.19;94922.38;6074708;23;20177;-86
2023/04/25 07:20:18;;;;;;;2.43;2.20;;;;;;;10.64;74.60;94927.34;6073190;23;20188;-84
2023/04/25 07:22:44;;;;;;;3.03;2.40;;;;;;;10.77;74.16;94927.41;6072171;23;20236;-85
2023/04/25 07:25:11;;;;;;;3.73;2.20;;;;;;;10.85;72.82;94921.28;6071925;23;20185;-85
2023/04/25 07:27:37;;;;;;;2.90;2.10;;;;;;;10.88;73.02;94918.31;6070008;23;20200;-85
2023/04/25 07:30:06;;;;;;;2.83;2.10;;;;;;;10.90;71.95;94921.50;6068086;23;20181;-85
2023/04/25 07:32:33;;;;;;;2.67;1.93;;;;;;;10.96;72.49;94913.00;6069586;23;20556;-84
2023/04/25 07:34:59;;;;;;;2.27;1.90;;;;;;;11.10;72.08;94914.59;6068984;23;20180;-85
2023/04/25 07:37:26;;;;;;;3.37;2.33;;;;;;;11.18;70.98;94911.03;6068895;23;20756;-85
2023/04/25 07:39:52;;;;;;;5.43;2.40;;;;;;;11.30;71.24;94912.84;6068258;23;20233;-86
2023/04/25 07:42:19;;;;;;;3.20;2.20;;;;;;;11.50;70.42;94905.13;6069260;23;20209;-86
2023/04/25 07:44:45;;;;;;;3.80;2.17;;;;;;;11.71;69.64;94907.50;6069197;23;20181;-85
2023/04/25 07:47:13;;;;;;;2.67;2.20;;;;;;;11.96;69.89;94909.44;6069867;23;20185;-86
2023/04/25 07:49:40;;;;;;;2.80;2.37;;;;;;;12.11;67.60;94910.03;6068470;23;20201;-85
2023/04/25 07:52:06;;;;;;;4.83;2.90;;;;;;;12.25;66.14;94916.75;6069828;23;20200;-85
2023/04/25 07:54:33;;;;;;;2.53;2.23;;;;;;;12.51;65.30;94902.16;6068400;23;20181;-85
2023/04/25 07:56:59;;;;;;;5.13;2.60;;;;;;;12.72;63.72;94909.59;6071613;23;20181;-86
2023/04/25 07:59:26;;;;;;;3.97;2.30;;;;;;;12.84;63.38;94912.34;6072235;23;20173;-85
2023/04/25 08:01:52;;;;;;;4.53;2.47;;;;;;;13.02;63.13;94905.47;6070585;23;20208;-86
2023/04/25 08:04:20;;;;;;;3.33;2.33;;;;;;;13.16;61.92;94898.47;6070534;23;20251;-85
2023/04/25 08:06:48;;;;;;;2.57;2.37;;;;;;;13.37;60.82;94900.69;6071842;23;20177;-86
2023/04/25 08:09:15;;;;;;;4.13;2.60;;;;;;;13.82;60.90;94887.59;6071483;23;20201;-86
2023/04/25 08:11:41;;;;;;;3.30;2.30;;;;;;;13.76;59.61;94886.66;6071917;23;20211;-85
2023/04/25 08:14:08;;;;;;;2.97;2.20;;;;;;;13.47;60.03;94901.00;6072277;23;20228;-85
2023/04/25 08:16:34;;;;;;;3.93;2.47;;;;;;;13.19;61.43;94897.25;6071941;23;20181;-85
2023/04/25 08:19:01;;;;;;;3.07;2.20;;;;;;;13.18;61.19;94899.06;6071465;23;20188;-86
2023/04/25 08:21:29;;;;;;;2.40;2.20;;;;;;;13.04;61.13;94905.28;6071440;23;20201;-88
2023/04/25 08:23:57;;;;;;;2.40;2.07;;;;;;;12.82;61.04;94901.44;6072036;23;20186;-86
2023/04/25 08:26:23;;;;;;;2.80;2.30;;;;;;;12.61;63.23;94905.09;6070964;23;20252;-86
2023/04/25 08:28:51;;;;;;;2.60;2.40;;;;;;;12.44;61.73;94913.31;6071446;23;20240;-87
2023/04/25 08:31:20;;;;;;;2.70;2.30;;;;;;;12.49;62.56;94911.91;6070373;23;20192;-86
2023/04/25 08:33:51;;;;;;;4.37;2.33;;;;;;;12.72;59.60;94907.81;6071484;23;20173;-86
2023/04/25 08:36:18;;;;;;;2.20;1.70;;;;;;;13.26;57.65;94905.78;6071533;23;20183;-87
2023/04/25 08:38:58;;;;;;;2.43;1.70;;;;;;;13.75;55.34;94907.56;6071075;23;20181;-85
2023/04/25 08:45:09;;;;;;;5.03;1.90;;;;;;;14.66;52.81;94909.44;5982155;24;20215;-85
2023/04/25 08:47:49;;;;;;;2.20;1.73;;;;;;;14.96;52.82;94920.63;5981837;24;20264;-86
2023/04/25 08:50:51;;;;;;;2.80;1.70;;;;;;;14.84;48.45;94910.19;6071411;23;20184;-87
2023/04/25 08:53:39;;;;;;;2.30;1.60;;;;;;;14.99;50.03;94917.59;6072873;23;20531;-88
2023/04/25 08:59:17;;;;;;;1.48;1.38;;;;;;;15.22;48.22;94898.69;6022314;23;20640;-86
2023/04/25 09:02:01;;;;;;;1.83;1.60;;;;;;;15.56;47.28;94909.44;6070321;23;20201;-86
2023/04/25 09:08:39;;;;;;;1.65;1.40;;;;;;;15.99;45.57;94902.09;6049537;23;20191;-86
2023/04/25 09:11:18;;;;;;;1.65;1.40;;;;;;;16.35;46.32;94895.06;6047301;23;20289;-86
2023/04/25 09:14:07;;;;;;;2.40;1.42;;;;;;;15.99;46.36;94906.50;6070878;23;20169;-86
2023/04/25 09:16:57;;;;;;;2.30;1.70;;;;;;;15.37;45.87;94890.53;6069582;23;20187;-88
2023/04/25 09:19:50;;;;;;;1.75;1.45;;;;;;;14.80;47.75;94908.28;6070791;23;20175;-86
2023/04/25 09:28:17;;;;;;;2.45;1.52;;;;;;;14.98;47.96;94917.81;6063497;23;20193;-86
2023/04/25 09:31:43;;;;;;;2.47;1.60;;;;;;;14.77;47.43;94922.47;6055907;23;20201;-87
2023/04/25 09:34:51;;;;;;;;;;;;;;;;;;;;;
2023/04/25 09:37:28;;;;;;;2.65;1.40;;;;;;;14.08;47.18;94918.41;6000177;23;20269;-87
2023/04/25 09:40:05;;;;;;;1.95;1.60;;;;;;;13.95;47.04;94915.16;6068818;23;20216;-86
2023/04/25 09:45:47;;;;;;;2.28;1.50;;;;;;;14.10;47.32;94913.78;6072334;23;20587;-86
2023/04/25 09:48:42;;;;;;;1.73;1.55;;;;;;;14.13;47.77;94925.53;6065718;23;20232;-86
2023/04/25 09:53:58;;;;;;;2.63;1.25;;;;;;;14.75;46.65;94932.25;6070541;23;20173;-86
2023/04/25 09:57:09;;;;;;;;;;;;;;;;;;;;;
2023/04/25 10:00:04;;;;;;;2.45;1.60;;;;;;;14.50;46.48;94928.94;6071554;23;20204;-85
2023/04/25 10:02:46;;;;;;;4.20;1.48;;;;;;;14.39;46.89;94919.28;6070711;23;20208;-85
2023/04/25 10:05:14;;;;;;;1.83;1.30;;;;;;;14.23;46.69;94925.84;6066380;23;20191;-86
2023/04/25 10:10:43;;;;;;;1.95;1.70;;;;;;;15.07;45.76;94926.84;6057895;23;20882;-86
2023/04/25 10:13:25;;;;;;;;;;;;;;;;;;;;;
2023/04/25 10:16:04;;;;;;;2.83;1.58;;;;;;;15.82;44.96;94909.78;6072121;23;20162;-85
2023/04/25 10:18:37;;;;;;;3.75;1.45;;;;;;;15.42;43.61;94904.38;6070720;23;20592;-86
2023/04/25 10:21:26;;;;;;;1.80;1.50;;;;;;;15.15;43.67;94905.81;6070850;23;20653;-85
2023/04/25 10:24:11;;;;;;;2.30;1.50;;;;;;;14.85;44.62;94903.22;6072236;23;20207;-86
2023/04/25 10:26:39;;;;;;;1.75;1.40;;;;;;;14.50;45.75;94918.59;6072390;23;20260;-86
2023/04/25 10:29:29;;;;;;;1.92;1.48;;;;;;;14.28;46.46;94922.56;6069967;23;20196;-86
2023/04/25 10:34:49;;;;;;;2.08;1.30;;;;;;;13.57;49.12;94926.41;6069332;23;20256;-86
2023/04/25 10:37:19;;;;;;;1.35;1.20;;;;;;;13.09;47.01;94939.81;6071604;23;20497;-86
2023/04/25 10:40:05;;;;;;;1.07;1.00;;;;;;;12.71;47.00;94941.59;6072069;23;20164;-89
2023/04/25 10:42:57;;;;;;;1.10;1.00;;;;;;;12.44;47.76;94958.97;6060691;23;20208;-86
2023/04/25 10:46:06;;;;;;;1.30;1.20;;;;;;;12.29;48.46;94951.47;6072644;23;20169;-86
2023/04/25 10:51:30;;;;;;;1.30;1.20;;;;;;;12.43;50.05;94965.94;6066192;23;20430;-86
2023/04/25 10:54:40;;;;;;;2.13;1.20;;;;;;;12.55;51.25;94966.09;6073425;23;20204;-86
2023/04/25 10:57:31;;;;;;;2.53;1.60;;;;;;;12.56;52.94;94977.22;6068951;23;20196;-86
2023/04/25 11:03:22;;;;;;;1.33;1.23;;;;;;;12.55;53.33;94986.75;6070224;23;20219;-86
2023/04/25 11:09:39;;;;;;;1.47;1.27;;;;;;;12.65;53.61;94992.28;6013679;23;20261;-86
2023/04/25 11:18:38;;;;;;;1.33;1.10;;;;;;;13.14;52.79;95004.59;6005872;23;20184;-86
2023/04/25 11:21:33;;;;;;;1.60;1.20;;;;;;;13.13;52.07;95007.41;6071730;23;20205;-88
2023/04/25 11:27:27;;;;;;;1.10;1.00;;;;;;;12.95;52.24;95013.25;6062371;23;20244;-86
2023/04/25 11:33:31;;;;;;;2.23;1.30;;;;;;;12.59;55.02;95021.50;6042781;23;20204;-88
2023/04/25 11:36:21;;;;;;;1.67;1.20;;;;;;;12.71;54.41;95013.91;6076504;23;20181;-88
2023/04/25 11:42:08;;;;;;;1.40;1.30;;;;;;;12.42;53.28;95021.16;6030344;23;20222;-87
2023/04/25 11:44:58;;;;;;;2.30;1.10;;;;;;;12.31;55.03;95034.69;6075087;23;20245;-87
2023/04/25 11:47:55;;;;;;;2.43;1.50;;;;;;;11.99;59.08;95038.06;6075590;23;20252;-87
2023/04/25 11:50:40;;;;;;;1.50;1.40;;;;;;;11.76;62.91;95048.75;6075807;23;20621;-87
2023/04/25 12:03:05;;;;;;;;;;;;;;;;;;;;;
2023/04/25 12:05:51;;;;;;;1.13;1.03;;;;;;;10.80;63.75;95060.09;6061874;23;20181;-87
2023/04/25 12:14:45;;;;;;;1.33;1.13;;;;;;;11.35;65.16;95066.88;6073503;23;20474;-87
2023/04/25 12:23:57;;;;;;;0.97;0.97;;;;;;;11.08;62.66;95071.13;6066053;23;20766;-86
2023/04/25 12:26:48;;;;;;;1.00;1.00;;;;;;;11.10;63.73;95068.38;6076081;23;20192;-87
2023/04/25 12:30:03;;;;;;;1.10;1.00;;;;;;;11.18;64.75;95070.78;5957728;24;20264;-88
2023/04/25 12:35:57;;;;;;;1.37;1.20;;;;;;;11.46;64.40;95076.63;6000263;23;20177;-86
2023/04/25 12:45:57;;;;;;;1.33;0.83;;;;;;;11.32;63.56;95067.28;6070312;23;20184;-87
2023/04/25 12:48:49;;;;;;;1.10;1.00;;;;;;;11.44;65.04;95076.03;6038276;23;20180;-87
2023/04/25 12:51:38;;;;;;;1.37;1.10;;;;;;;11.21;64.30;95089.22;6073513;23;20193;-87
2023/04/25 12:54:28;;;;;;;1.00;1.00;;;;;;;11.11;65.23;95088.78;6064483;23;20192;-86
2023/04/25 13:00:00;;;;;;;0.90;0.90;;;;;;;11.10;65.90;95097.50;5981925;23;20307;-86
2023/04/25 13:06:16;;;;;;;1.13;1.00;;;;;;;11.22;68.98;95102.91;6069618;23;20257;-88
2023/04/25 13:14:55;;;;;;;1.23;1.10;;;;;;;11.11;71.07;95111.19;6071709;23;20204;-88
2023/04/25 13:21:11;;;;;;;1.27;1.10;;;;;;;11.30;70.51;95103.53;6070863;23;20179;-87
2023/04/25 13:24:23;;;;;;;1.00;1.00;;;;;;;11.23;70.71;95109.66;6032104;23;20184;-86
2023/04/25 13:27:30;;;;;;;1.17;1.00;;;;;;;11.14;71.49;95121.91;6069778;23;20236;-86
2023/04/25 13:30:18;;;;;;;1.30;1.00;;;;;;;11.10;71.75;95119.91;5990412;23;20599;-88
2023/04/25 13:32:52;;;;;;;1.17;1.07;;;;;;;11.03;72.51;95119.84;6072935;23;20625;-87
2023/04/25 13:35:28;;;;;;;0.90;0.90;;;;;;;10.86;71.36;95129.69;6072807;23;20168;-87
2023/04/25 13:38:07;;;;;;;1.00;1.00;;;;;;;10.73;73.71;95130.41;6072664;23;20627;-86
2023/04/25 13:40:41;;;;;;;1.37;1.10;;;;;;;10.68;73.95;95137.88;6071802;23;20161;-86
2023/04/25 13:43:12;;;;;;;1.10;1.00;;;;;;;10.78;72.73;95139.31;6073199;23;20181;-86
2023/04/25 13:45:57;;;;;;;1.57;1.00;;;;;;;10.80;74.53;95143.28;6071011;23;20188;-86
2023/04/25 13:48:25;;;;;;;1.07;1.07;;;;;;;10.72;71.92;95139.09;6068591;23;20818;-86
2023/04/25 13:50:51;;;;;;;1.17;1.07;;;;;;;10.81;72.74;95147.47;6069836;23;20201;-86
2023/04/25 13:53:18;;;;;;;1.20;1.10;;;;;;;10.81;75.41;95146.66;6070557;23;20185;-86
2023/04/25 13:55:46;;;;;;;0.97;0.97;;;;;;;10.94;75.23;95152.72;6076910;23;20240;-87
2023/04/25 13:58:14;;;;;;;2.13;1.10;;;;;;;10.90;74.44;95142.97;6077129;23;20185;-86
2023/04/25 14:00:43;;;;;;;1.20;1.10;;;;;;;10.78;74.59;95152.19;6072441;23;20211;-87
2023/04/25 14:03:10;;;;;;;1.00;1.00;;;;;;;10.77;73.00;95160.94;6071761;23;20177;-85
2023/04/25 14:05:39;;;;;;;1.63;1.20;;;;;;;10.71;72.62;95155.53;6069659;23;20181;-86
2023/04/25 14:08:10;;;;;;;1.30;1.20;;;;;;;10.74;74.65;95154.38;6071162;23;20180;-87
2023/04/25 14:10:37;;;;;;;2.70;1.30;;;;;;;10.74;74.81;95167.25;6069988;23;20204;-87
2023/04/25 14:13:05;;;;;;;1.27;1.10;;;;;;;10.65;74.11;95158.84;6074412;23;20260;-87
2023/04/25 14:15:33;;;;;;;1.40;1.30;;;;;;;10.66;74.74;95164.78;6074558;23;20181;-86
2023/04/25 14:18:00;;;;;;;2.80;1.57;;;;;;;10.76;75.24;95160.13;6072469;23;20177;-87
2023/04/25 14:20:27;;;;;;;2.30;1.10;;;;;;;10.72;73.00;95164.84;6073345;23;20176;-87
2023/04/25 14:22:54;;;;;;;1.10;1.00;;;;;;;10.76;72.62;95161.91;6071280;23;20188;-85
2023/04/25 14:25:20;;;;;;;1.27;1.17;;;;;;;10.78;78.11;95162.50;6075682;23;20183;-86
2023/04/25 14:27:49;;;;;;;1.20;1.10;;;;;;;10.95;76.26;95158.66;6074272;23;20181;-87
2023/04/25 14:30:16;;;;;;;1.20;1.10;;;;;;;11.09;73.85;95155.16;6073846;23;20232;-87
2023/04/25 14:32:50;;;;;;;1.03;0.93;;;;;;;11.18;74.34;95161.75;6069251;23;20678;-86
2023/04/25 14:35:17;;;;;;;1.20;1.10;;;;;;;11.26;73.82;95160.81;6068440;23;20172;-85
2023/04/25 14:37:44;;;;;;;1.00;1.00;;;;;;;11.36;72.98;95167.19;6068603;23;20185;-87
2023/04/25 14:40:12;;;;;;;0.97;0.93;;;;;;;11.45;73.87;95165.25;6068122;23;20228;-87
2023/04/25 14:42:42;;;;;;;1.20;1.17;;;;;;;11.50;72.71;95167.25;6043629;23;20203;-86